sensor_id;sensor_type;location;lat;lon;timestamp;temperature;humidity
59301;DHT22;45073;52.740;6.784;2023-10-13T00:00:33;17.10;99.90
59301;DHT22;45073;52.740;6.784;2023-10-13T00:03:05;17.10;99.90
59301;DHT22;45073;52.740;6.784;2023-10-13T00:05:32;17.10;99.90
59301;DHT22;45073;52.740;6.784;2023-10-13T00:08:02;17.00;99.90
59301;DHT22;45073;52.740;6.784;2023-10-13T00:10:29;17.10;99.90
59301;DHT22;45073;52.740;6.784;2023-10-13T00:12:55;17.10;99.90
59301;DHT22;45073;52.740;6.784;2023-10-13T00:15:31;17.10;99.90
59301;DHT22;45073;52.740;6.784;2023-10-13T00:18:05;17.10;99.90
59301;DHT22;45073;52.740;6.784;2023-10-13T00:20:41;17.10;99.90
59301;DHT22;45073;52.740;6.784;2023-10-13T00:23:13;17.20;99.90
59301;DHT22;45073;52.740;6.784;2023-10-13T00:25:39;17.10;99.90
59301;DHT22;45073;52.740;6.784;2023-10-13T00:28:16;17.10;99.90
59301;DHT22;45073;52.740;6.784;2023-10-13T00:30:50;17.10;99.90
59301;DHT22;45073;52.740;6.784;2023-10-13T00:33:18;17.10;99.90
59301;DHT22;45073;52.740;6.784;2023-10-13T00:35:49;17.20;99.90
59301;DHT22;45073;52.740;6.784;2023-10-13T00:38:17;17.10;99.90
59301;DHT22;45073;52.740;6.784;2023-10-13T00:40:44;17.10;99.90
59301;DHT22;45073;52.740;6.784;2023-10-13T00:43:21;17.10;99.90
59301;DHT22;45073;52.740;6.784;2023-10-13T00:48:31;17.10;99.90
59301;DHT22;45073;52.740;6.784;2023-10-13T00:51:07;17.20;99.90
59301;DHT22;45073;52.740;6.784;2023-10-13T00:53:37;17.20;99.90
59301;DHT22;45073;52.740;6.784;2023-10-13T00:56:05;17.10;99.90
59301;DHT22;45073;52.740;6.784;2023-10-13T00:58:43;17.10;99.90
59301;DHT22;45073;52.740;6.784;2023-10-13T01:01:09;17.10;99.90
59301;DHT22;45073;52.740;6.784;2023-10-13T01:03:51;17.20;99.90
59301;DHT22;45073;52.740;6.784;2023-10-13T01:06:28;17.20;99.90
59301;DHT22;45073;52.740;6.784;2023-10-13T01:08:59;17.10;99.90
59301;DHT22;45073;52.740;6.784;2023-10-13T01:11:25;17.10;99.90
59301;DHT22;45073;52.740;6.784;2023-10-13T01:13:55;17.20;99.90
59301;DHT22;45073;52.740;6.784;2023-10-13T01:16:22;17.20;99.90
59301;DHT22;45073;52.740;6.784;2023-10-13T01:18:52;17.20;99.90
59301;DHT22;45073;52.740;6.784;2023-10-13T01:21:18;17.30;99.90
59301;DHT22;45073;52.740;6.784;2023-10-13T01:23:52;17.20;99.90
59301;DHT22;45073;52.740;6.784;2023-10-13T01:26:17;17.20;99.90
59301;DHT22;45073;52.740;6.784;2023-10-13T01:28:52;17.20;99.90
59301;DHT22;45073;52.740;6.784;2023-10-13T01:31:21;17.20;99.90
59301;DHT22;45073;52.740;6.784;2023-10-13T01:33:53;17.20;99.90
59301;DHT22;45073;52.740;6.784;2023-10-13T01:36:25;17.20;99.90
59301;DHT22;45073;52.740;6.784;2023-10-13T01:38:51;17.20;99.90
59301;DHT22;45073;52.740;6.784;2023-10-13T01:41:18;17.20;99.90
59301;DHT22;45073;52.740;6.784;2023-10-13T01:43:44;17.10;99.90
59301;DHT22;45073;52.740;6.784;2023-10-13T01:46:10;17.10;99.90
59301;DHT22;45073;52.740;6.784;2023-10-13T01:48:39;17.20;99.90
59301;DHT22;45073;52.740;6.784;2023-10-13T01:51:06;17.20;99.90
59301;DHT22;45073;52.740;6.784;2023-10-13T01:53:36;17.20;99.90
59301;DHT22;45073;52.740;6.784;2023-10-13T01:56:02;17.20;99.90
59301;DHT22;45073;52.740;6.784;2023-10-13T01:58:39;17.20;99.90
59301;DHT22;45073;52.740;6.784;2023-10-13T02:01:09;17.20;99.90
59301;DHT22;45073;52.740;6.784;2023-10-13T02:03:35;17.20;99.90
59301;DHT22;45073;52.740;6.784;2023-10-13T02:06:06;17.20;99.90
59301;DHT22;45073;52.740;6.784;2023-10-13T02:08:35;17.20;99.90
59301;DHT22;45073;52.740;6.784;2023-10-13T02:11:05;17.20;99.90
59301;DHT22;45073;52.740;6.784;2023-10-13T02:13:32;17.20;99.90
59301;DHT22;45073;52.740;6.784;2023-10-13T02:15:58;17.20;99.90
59301;DHT22;45073;52.740;6.784;2023-10-13T02:18:29;17.20;99.90
59301;DHT22;45073;52.740;6.784;2023-10-13T02:21:07;17.20;99.90
59301;DHT22;45073;52.740;6.784;2023-10-13T02:23:39;17.20;99.90
59301;DHT22;45073;52.740;6.784;2023-10-13T02:26:13;17.20;99.90
59301;DHT22;45073;52.740;6.784;2023-10-13T02:28:59;17.20;99.90
59301;DHT22;45073;52.740;6.784;2023-10-13T02:31:28;17.20;99.90
59301;DHT22;45073;52.740;6.784;2023-10-13T02:33:54;17.20;99.90
59301;DHT22;45073;52.740;6.784;2023-10-13T02:36:20;17.20;99.90
59301;DHT22;45073;52.740;6.784;2023-10-13T02:38:51;17.20;99.90
59301;DHT22;45073;52.740;6.784;2023-10-13T02:41:19;17.20;99.90
59301;DHT22;45073;52.740;6.784;2023-10-13T02:43:52;17.30;99.90
59301;DHT22;45073;52.740;6.784;2023-10-13T02:46:22;17.20;99.90
59301;DHT22;45073;52.740;6.784;2023-10-13T02:48:48;17.20;99.90
59301;DHT22;45073;52.740;6.784;2023-10-13T02:51:20;17.20;99.90
59301;DHT22;45073;52.740;6.784;2023-10-13T02:54:01;17.20;99.90
59301;DHT22;45073;52.740;6.784;2023-10-13T02:56:35;17.20;99.90
59301;DHT22;45073;52.740;6.784;2023-10-13T02:59:02;17.20;99.90
59301;DHT22;45073;52.740;6.784;2023-10-13T03:01:35;17.20;99.90
59301;DHT22;45073;52.740;6.784;2023-10-13T03:04:02;17.20;99.90
59301;DHT22;45073;52.740;6.784;2023-10-13T03:06:28;17.10;99.90
59301;DHT22;45073;52.740;6.784;2023-10-13T03:09:17;17.20;99.90
59301;DHT22;45073;52.740;6.784;2023-10-13T03:11:50;17.20;99.90
59301;DHT22;45073;52.740;6.784;2023-10-13T03:14:17;17.10;99.90
59301;DHT22;45073;52.740;6.784;2023-10-13T03:16:58;17.20;99.90
59301;DHT22;45073;52.740;6.784;2023-10-13T03:19:31;17.10;99.90
59301;DHT22;45073;52.740;6.784;2023-10-13T03:22:07;17.10;99.90
59301;DHT22;45073;52.740;6.784;2023-10-13T03:24:36;17.20;99.90
59301;DHT22;45073;52.740;6.784;2023-10-13T03:27:04;17.10;99.90
59301;DHT22;45073;52.740;6.784;2023-10-13T03:29:44;17.10;99.90
59301;DHT22;45073;52.740;6.784;2023-10-13T03:32:14;17.10;99.90
59301;DHT22;45073;52.740;6.784;2023-10-13T03:34:45;17.20;99.90
59301;DHT22;45073;52.740;6.784;2023-10-13T03:37:30;17.20;99.90
59301;DHT22;45073;52.740;6.784;2023-10-13T03:40:12;17.20;99.90
59301;DHT22;45073;52.740;6.784;2023-10-13T03:42:47;17.10;99.90
59301;DHT22;45073;52.740;6.784;2023-10-13T03:45:33;17.10;99.90
59301;DHT22;45073;52.740;6.784;2023-10-13T03:48:08;17.10;99.90
59301;DHT22;45073;52.740;6.784;2023-10-13T03:51:01;17.10;99.90
59301;DHT22;45073;52.740;6.784;2023-10-13T03:53:37;17.20;99.90
59301;DHT22;45073;52.740;6.784;2023-10-13T03:56:15;17.10;99.90
59301;DHT22;45073;52.740;6.784;2023-10-13T03:58:49;17.20;99.90
59301;DHT22;45073;52.740;6.784;2023-10-13T04:01:14;17.20;99.90
59301;DHT22;45073;52.740;6.784;2023-10-13T04:03:42;17.20;99.90
59301;DHT22;45073;52.740;6.784;2023-10-13T04:06:32;17.20;99.90
59301;DHT22;45073;52.740;6.784;2023-10-13T04:09:23;17.10;99.90
59301;DHT22;45073;52.740;6.784;2023-10-13T04:11:55;17.10;99.90
59301;DHT22;45073;52.740;6.784;2023-10-13T04:14:34;17.10;99.90
59301;DHT22;45073;52.740;6.784;2023-10-13T04:17:38;17.10;99.90
59301;DHT22;45073;52.740;6.784;2023-10-13T04:20:09;17.00;99.90
59301;DHT22;45073;52.740;6.784;2023-10-13T04:22:37;17.10;99.90
59301;DHT22;45073;52.740;6.784;2023-10-13T04:25:32;17.10;99.90
59301;DHT22;45073;52.740;6.784;2023-10-13T04:28:16;17.10;99.90
59301;DHT22;45073;52.740;6.784;2023-10-13T04:31:00;17.00;99.90
59301;DHT22;45073;52.740;6.784;2023-10-13T04:33:37;17.00;99.90
59301;DHT22;45073;52.740;6.784;2023-10-13T04:36:17;17.00;99.90
59301;DHT22;45073;52.740;6.784;2023-10-13T04:38:58;17.10;99.90
59301;DHT22;45073;52.740;6.784;2023-10-13T04:41:36;17.10;99.90
59301;DHT22;45073;52.740;6.784;2023-10-13T04:44:12;17.10;99.90
59301;DHT22;45073;52.740;6.784;2023-10-13T04:46:58;17.10;99.90
59301;DHT22;45073;52.740;6.784;2023-10-13T04:49:25;17.10;99.90
59301;DHT22;45073;52.740;6.784;2023-10-13T04:51:58;17.10;99.90
59301;DHT22;45073;52.740;6.784;2023-10-13T04:54:26;17.10;99.90
59301;DHT22;45073;52.740;6.784;2023-10-13T04:56:54;17.00;99.90
59301;DHT22;45073;52.740;6.784;2023-10-13T04:59:40;17.00;99.90
59301;DHT22;45073;52.740;6.784;2023-10-13T05:02:25;17.00;99.90
59301;DHT22;45073;52.740;6.784;2023-10-13T05:05:04;17.00;99.90
59301;DHT22;45073;52.740;6.784;2023-10-13T05:07:48;17.00;99.90
59301;DHT22;45073;52.740;6.784;2023-10-13T05:10:34;17.00;99.90
59301;DHT22;45073;52.740;6.784;2023-10-13T05:13:18;17.00;99.90
59301;DHT22;45073;52.740;6.784;2023-10-13T05:16:03;17.00;99.90
59301;DHT22;45073;52.740;6.784;2023-10-13T05:18:47;17.00;99.90
59301;DHT22;45073;52.740;6.784;2023-10-13T05:21:31;17.00;99.90
59301;DHT22;45073;52.740;6.784;2023-10-13T05:24:15;17.00;99.90
59301;DHT22;45073;52.740;6.784;2023-10-13T05:26:59;17.00;99.90
59301;DHT22;45073;52.740;6.784;2023-10-13T05:29:45;17.00;99.90
59301;DHT22;45073;52.740;6.784;2023-10-13T05:32:29;17.00;99.90
59301;DHT22;45073;52.740;6.784;2023-10-13T05:35:14;17.00;99.90
59301;DHT22;45073;52.740;6.784;2023-10-13T05:37:59;17.00;99.90
59301;DHT22;45073;52.740;6.784;2023-10-13T05:41:03;17.00;99.90
59301;DHT22;45073;52.740;6.784;2023-10-13T05:43:47;16.90;99.90
59301;DHT22;45073;52.740;6.784;2023-10-13T05:46:32;16.90;99.90
59301;DHT22;45073;52.740;6.784;2023-10-13T05:49:07;17.00;99.90
59301;DHT22;45073;52.740;6.784;2023-10-13T05:51:46;16.90;99.90
59301;DHT22;45073;52.740;6.784;2023-10-13T05:54:18;16.90;99.90
59301;DHT22;45073;52.740;6.784;2023-10-13T05:56:45;16.90;99.90
59301;DHT22;45073;52.740;6.784;2023-10-13T05:59:31;17.00;99.90
59301;DHT22;45073;52.740;6.784;2023-10-13T06:02:17;16.90;99.90
59301;DHT22;45073;52.740;6.784;2023-10-13T06:05:03;17.00;99.90
59301;DHT22;45073;52.740;6.784;2023-10-13T06:07:47;17.00;99.90
59301;DHT22;45073;52.740;6.784;2023-10-13T06:10:32;16.90;99.90
59301;DHT22;45073;52.740;6.784;2023-10-13T06:13:16;16.90;99.90
59301;DHT22;45073;52.740;6.784;2023-10-13T06:16:04;16.90;99.90
59301;DHT22;45073;52.740;6.784;2023-10-13T06:18:48;16.90;99.90
59301;DHT22;45073;52.740;6.784;2023-10-13T06:21:32;16.90;99.90
59301;DHT22;45073;52.740;6.784;2023-10-13T06:24:16;16.90;99.90
59301;DHT22;45073;52.740;6.784;2023-10-13T06:27:05;16.90;99.90
59301;DHT22;45073;52.740;6.784;2023-10-13T06:29:49;16.90;99.90
59301;DHT22;45073;52.740;6.784;2023-10-13T06:32:15;16.80;99.90
59301;DHT22;45073;52.740;6.784;2023-10-13T06:34:42;16.80;99.90
59301;DHT22;45073;52.740;6.784;2023-10-13T06:37:16;16.90;99.90
59301;DHT22;45073;52.740;6.784;2023-10-13T06:39:49;16.90;99.90
59301;DHT22;45073;52.740;6.784;2023-10-13T06:42:15;16.90;99.90
59301;DHT22;45073;52.740;6.784;2023-10-13T06:44:42;16.90;99.90
59301;DHT22;45073;52.740;6.784;2023-10-13T06:47:12;17.00;99.90
59301;DHT22;45073;52.740;6.784;2023-10-13T06:49:40;17.00;99.90
59301;DHT22;45073;52.740;6.784;2023-10-13T06:52:09;17.00;99.90
59301;DHT22;45073;52.740;6.784;2023-10-13T06:54:38;17.10;99.90
59301;DHT22;45073;52.740;6.784;2023-10-13T06:57:07;17.20;99.90
59301;DHT22;45073;52.740;6.784;2023-10-13T06:59:42;17.20;99.90
59301;DHT22;45073;52.740;6.784;2023-10-13T07:02:08;17.20;99.90
59301;DHT22;45073;52.740;6.784;2023-10-13T07:04:35;17.30;99.90
59301;DHT22;45073;52.740;6.784;2023-10-13T07:07:07;17.30;99.90
59301;DHT22;45073;52.740;6.784;2023-10-13T07:09:36;17.30;99.90
59301;DHT22;45073;52.740;6.784;2023-10-13T07:12:03;17.30;99.90
59301;DHT22;45073;52.740;6.784;2023-10-13T07:14:29;17.40;99.90
59301;DHT22;45073;52.740;6.784;2023-10-13T07:17:05;17.40;99.90
59301;DHT22;45073;52.740;6.784;2023-10-13T07:19:33;17.50;99.90
59301;DHT22;45073;52.740;6.784;2023-10-13T07:22:01;17.40;99.90
59301;DHT22;45073;52.740;6.784;2023-10-13T07:24:45;17.50;99.90
59301;DHT22;45073;52.740;6.784;2023-10-13T07:27:23;17.50;99.90
59301;DHT22;45073;52.740;6.784;2023-10-13T07:29:51;17.50;99.90
59301;DHT22;45073;52.740;6.784;2023-10-13T07:32:38;17.50;99.90
59301;DHT22;45073;52.740;6.784;2023-10-13T07:35:19;17.60;99.90
59301;DHT22;45073;52.740;6.784;2023-10-13T07:37:49;17.60;99.90
59301;DHT22;45073;52.740;6.784;2023-10-13T07:40:18;17.60;99.90
59301;DHT22;45073;52.740;6.784;2023-10-13T07:42:56;17.60;99.90
59301;DHT22;45073;52.740;6.784;2023-10-13T07:45:42;17.60;99.90
59301;DHT22;45073;52.740;6.784;2023-10-13T07:48:10;17.60;99.90
59301;DHT22;45073;52.740;6.784;2023-10-13T07:50:57;17.70;99.90
59301;DHT22;45073;52.740;6.784;2023-10-13T07:53:23;17.70;99.90
59301;DHT22;45073;52.740;6.784;2023-10-13T07:55:50;17.70;99.90
59301;DHT22;45073;52.740;6.784;2023-10-13T07:58:22;17.70;99.90
59301;DHT22;45073;52.740;6.784;2023-10-13T08:00:51;17.70;99.90
59301;DHT22;45073;52.740;6.784;2023-10-13T08:03:33;17.70;99.90
59301;DHT22;45073;52.740;6.784;2023-10-13T08:06:21;17.70;99.90
59301;DHT22;45073;52.740;6.784;2023-10-13T08:08:51;17.70;99.90
59301;DHT22;45073;52.740;6.784;2023-10-13T08:11:20;17.70;99.90
59301;DHT22;45073;52.740;6.784;2023-10-13T08:13:53;17.70;99.90
59301;DHT22;45073;52.740;6.784;2023-10-13T08:16:28;17.70;99.90
59301;DHT22;45073;52.740;6.784;2023-10-13T08:19:11;17.70;99.90
59301;DHT22;45073;52.740;6.784;2023-10-13T08:21:38;17.70;99.90
59301;DHT22;45073;52.740;6.784;2023-10-13T08:24:04;17.70;99.90
59301;DHT22;45073;52.740;6.784;2023-10-13T08:26:33;17.80;99.90
59301;DHT22;45073;52.740;6.784;2023-10-13T08:29:02;17.80;99.90
59301;DHT22;45073;52.740;6.784;2023-10-13T08:31:51;17.70;99.90
59301;DHT22;45073;52.740;6.784;2023-10-13T08:34:32;17.80;99.90
59301;DHT22;45073;52.740;6.784;2023-10-13T08:37:07;17.80;99.90
59301;DHT22;45073;52.740;6.784;2023-10-13T08:39:57;17.90;99.90
59301;DHT22;45073;52.740;6.784;2023-10-13T08:42:37;17.90;99.90
59301;DHT22;45073;52.740;6.784;2023-10-13T08:45:10;17.90;99.90
59301;DHT22;45073;52.740;6.784;2023-10-13T08:47:50;18.00;99.90
59301;DHT22;45073;52.740;6.784;2023-10-13T08:56:03;18.20;99.90
59301;DHT22;45073;52.740;6.784;2023-10-13T08:58:33;18.20;99.90
59301;DHT22;45073;52.740;6.784;2023-10-13T09:04:25;18.40;99.90
59301;DHT22;45073;52.740;6.784;2023-10-13T09:09:49;18.50;99.90
59301;DHT22;45073;52.740;6.784;2023-10-13T09:14:53;18.60;99.90
59301;DHT22;45073;52.740;6.784;2023-10-13T09:17:31;18.70;99.90
59301;DHT22;45073;52.740;6.784;2023-10-13T09:20:05;18.80;99.90
59301;DHT22;45073;52.740;6.784;2023-10-13T09:22:50;18.80;99.90
59301;DHT22;45073;52.740;6.784;2023-10-13T09:25:33;18.80;99.90
59301;DHT22;45073;52.740;6.784;2023-10-13T09:28:12;18.90;99.90
59301;DHT22;45073;52.740;6.784;2023-10-13T09:30:48;18.90;99.90
59301;DHT22;45073;52.740;6.784;2023-10-13T09:33:23;19.00;99.90
59301;DHT22;45073;52.740;6.784;2023-10-13T09:36:16;19.00;99.90
59301;DHT22;45073;52.740;6.784;2023-10-13T09:38:43;19.10;99.90
59301;DHT22;45073;52.740;6.784;2023-10-13T09:41:29;19.10;99.90
59301;DHT22;45073;52.740;6.784;2023-10-13T09:43:57;19.10;99.90
59301;DHT22;45073;52.740;6.784;2023-10-13T09:46:26;19.10;99.90
59301;DHT22;45073;52.740;6.784;2023-10-13T09:49:05;19.00;99.90
59301;DHT22;45073;52.740;6.784;2023-10-13T09:51:40;19.10;99.90
59301;DHT22;45073;52.740;6.784;2023-10-13T09:54:25;19.10;99.90
59301;DHT22;45073;52.740;6.784;2023-10-13T09:56:58;19.10;99.90
59301;DHT22;45073;52.740;6.784;2023-10-13T10:02:01;19.10;99.90
59301;DHT22;45073;52.740;6.784;2023-10-13T10:04:34;19.20;99.90
59301;DHT22;45073;52.740;6.784;2023-10-13T10:07:26;19.20;99.90
59301;DHT22;45073;52.740;6.784;2023-10-13T10:10:01;19.20;99.90
59301;DHT22;45073;52.740;6.784;2023-10-13T10:15:29;19.40;99.90
59301;DHT22;45073;52.740;6.784;2023-10-13T10:18:00;19.40;99.90
59301;DHT22;45073;52.740;6.784;2023-10-13T10:20:31;19.40;99.90
59301;DHT22;45073;52.740;6.784;2023-10-13T10:23:12;19.40;99.90
59301;DHT22;45073;52.740;6.784;2023-10-13T10:25:47;19.40;99.90
59301;DHT22;45073;52.740;6.784;2023-10-13T10:28:15;19.40;99.90
59301;DHT22;45073;52.740;6.784;2023-10-13T10:30:42;19.50;99.90
59301;DHT22;45073;52.740;6.784;2023-10-13T10:33:09;19.50;99.90
59301;DHT22;45073;52.740;6.784;2023-10-13T10:35:43;19.50;99.90
59301;DHT22;45073;52.740;6.784;2023-10-13T10:38:17;19.60;99.90
59301;DHT22;45073;52.740;6.784;2023-10-13T10:41:01;19.60;99.90
59301;DHT22;45073;52.740;6.784;2023-10-13T10:43:38;19.70;99.90
59301;DHT22;45073;52.740;6.784;2023-10-13T10:46:27;19.80;99.90
59301;DHT22;45073;52.740;6.784;2023-10-13T10:48:53;19.80;99.90
59301;DHT22;45073;52.740;6.784;2023-10-13T10:51:26;19.90;99.90
59301;DHT22;45073;52.740;6.784;2023-10-13T10:53:57;19.90;99.90
59301;DHT22;45073;52.740;6.784;2023-10-13T10:56:25;19.90;99.90
59301;DHT22;45073;52.740;6.784;2023-10-13T10:58:56;19.90;99.90
59301;DHT22;45073;52.740;6.784;2023-10-13T11:01:23;19.90;99.90
59301;DHT22;45073;52.740;6.784;2023-10-13T11:04:07;19.90;99.90
59301;DHT22;45073;52.740;6.784;2023-10-13T11:06:37;19.90;99.90
59301;DHT22;45073;52.740;6.784;2023-10-13T11:09:11;19.90;99.90
59301;DHT22;45073;52.740;6.784;2023-10-13T11:12:10;19.90;99.90
59301;DHT22;45073;52.740;6.784;2023-10-13T11:14:48;19.90;99.90
59301;DHT22;45073;52.740;6.784;2023-10-13T11:17:23;19.90;99.90
59301;DHT22;45073;52.740;6.784;2023-10-13T11:20:11;20.00;99.90
59301;DHT22;45073;52.740;6.784;2023-10-13T11:22:47;20.00;99.90
59301;DHT22;45073;52.740;6.784;2023-10-13T11:25:26;20.00;99.90
59301;DHT22;45073;52.740;6.784;2023-10-13T11:30:43;20.20;99.90
59301;DHT22;45073;52.740;6.784;2023-10-13T11:33:11;20.20;99.90
59301;DHT22;45073;52.740;6.784;2023-10-13T11:35:40;20.20;99.90
59301;DHT22;45073;52.740;6.784;2023-10-13T11:38:18;20.20;99.90
59301;DHT22;45073;52.740;6.784;2023-10-13T11:41:01;20.30;99.90
59301;DHT22;45073;52.740;6.784;2023-10-13T11:43:32;20.40;99.90
59301;DHT22;45073;52.740;6.784;2023-10-13T11:46:01;20.50;99.90
59301;DHT22;45073;52.740;6.784;2023-10-13T11:48:33;20.50;99.90
59301;DHT22;45073;52.740;6.784;2023-10-13T11:53:38;20.50;99.90
59301;DHT22;45073;52.740;6.784;2023-10-13T11:56:08;20.50;99.90
59301;DHT22;45073;52.740;6.784;2023-10-13T11:58:35;20.50;99.90
59301;DHT22;45073;52.740;6.784;2023-10-13T12:01:01;20.50;99.90
59301;DHT22;45073;52.740;6.784;2023-10-13T12:03:47;20.60;99.90
59301;DHT22;45073;52.740;6.784;2023-10-13T12:06:32;20.60;99.90
59301;DHT22;45073;52.740;6.784;2023-10-13T12:11:40;20.60;99.90
59301;DHT22;45073;52.740;6.784;2023-10-13T12:14:14;20.50;99.90
59301;DHT22;45073;52.740;6.784;2023-10-13T12:16:48;20.50;99.90
59301;DHT22;45073;52.740;6.784;2023-10-13T12:19:20;20.50;99.90
59301;DHT22;45073;52.740;6.784;2023-10-13T12:21:58;20.50;99.90
59301;DHT22;45073;52.740;6.784;2023-10-13T12:24:30;20.50;99.90
59301;DHT22;45073;52.740;6.784;2023-10-13T12:27:02;20.50;99.90
59301;DHT22;45073;52.740;6.784;2023-10-13T12:29:40;20.60;99.90
59301;DHT22;45073;52.740;6.784;2023-10-13T12:32:11;20.60;99.90
59301;DHT22;45073;52.740;6.784;2023-10-13T12:34:38;20.60;99.90
59301;DHT22;45073;52.740;6.784;2023-10-13T12:37:32;20.70;99.90
59301;DHT22;45073;52.740;6.784;2023-10-13T12:40:13;20.70;99.90
59301;DHT22;45073;52.740;6.784;2023-10-13T12:42:58;20.80;99.90
59301;DHT22;45073;52.740;6.784;2023-10-13T12:45:43;20.80;99.90
59301;DHT22;45073;52.740;6.784;2023-10-13T12:48:28;20.80;99.90
59301;DHT22;45073;52.740;6.784;2023-10-13T12:51:12;20.80;99.90
59301;DHT22;45073;52.740;6.784;2023-10-13T12:53:53;20.90;99.90
59301;DHT22;45073;52.740;6.784;2023-10-13T12:56:20;21.00;99.90
59301;DHT22;45073;52.740;6.784;2023-10-13T12:58:52;20.90;99.90
59301;DHT22;45073;52.740;6.784;2023-10-13T13:01:22;21.00;99.90
59301;DHT22;45073;52.740;6.784;2023-10-13T13:03:52;21.00;99.90
59301;DHT22;45073;52.740;6.784;2023-10-13T13:06:25;21.00;99.90
59301;DHT22;45073;52.740;6.784;2023-10-13T13:09:10;21.00;99.90
59301;DHT22;45073;52.740;6.784;2023-10-13T13:11:36;20.90;99.90
59301;DHT22;45073;52.740;6.784;2023-10-13T13:14:08;20.90;99.90
59301;DHT22;45073;52.740;6.784;2023-10-13T13:16:34;20.90;99.90
59301;DHT22;45073;52.740;6.784;2023-10-13T13:19:00;20.90;99.90
59301;DHT22;45073;52.740;6.784;2023-10-13T13:21:38;21.00;99.90
59301;DHT22;45073;52.740;6.784;2023-10-13T13:24:05;21.00;99.90
59301;DHT22;45073;52.740;6.784;2023-10-13T13:26:37;21.00;99.90
59301;DHT22;45073;52.740;6.784;2023-10-13T13:29:06;21.00;99.90
59301;DHT22;45073;52.740;6.784;2023-10-13T13:31:35;21.00;99.90
59301;DHT22;45073;52.740;6.784;2023-10-13T13:34:09;21.00;99.90
59301;DHT22;45073;52.740;6.784;2023-10-13T13:36:35;21.00;99.90
59301;DHT22;45073;52.740;6.784;2023-10-13T13:39:01;21.00;99.90
59301;DHT22;45073;52.740;6.784;2023-10-13T13:41:27;20.90;99.90
59301;DHT22;45073;52.740;6.784;2023-10-13T13:43:53;21.00;99.90
59301;DHT22;45073;52.740;6.784;2023-10-13T13:46:25;21.00;99.90
59301;DHT22;45073;52.740;6.784;2023-10-13T13:48:58;21.00;99.90
59301;DHT22;45073;52.740;6.784;2023-10-13T13:51:28;21.00;99.90
59301;DHT22;45073;52.740;6.784;2023-10-13T13:53:58;20.90;99.90
59301;DHT22;45073;52.740;6.784;2023-10-13T13:56:24;20.80;99.90
59301;DHT22;45073;52.740;6.784;2023-10-13T13:58:51;20.70;99.90
59301;DHT22;45073;52.740;6.784;2023-10-13T14:01:17;20.70;99.90
59301;DHT22;45073;52.740;6.784;2023-10-13T14:03:46;20.70;99.90
59301;DHT22;45073;52.740;6.784;2023-10-13T14:06:18;20.60;99.90
59301;DHT22;45073;52.740;6.784;2023-10-13T14:08:54;20.50;99.90
59301;DHT22;45073;52.740;6.784;2023-10-13T14:11:24;20.40;99.90
59301;DHT22;45073;52.740;6.784;2023-10-13T14:14:05;20.40;99.90
59301;DHT22;45073;52.740;6.784;2023-10-13T14:16:41;20.20;99.90
59301;DHT22;45073;52.740;6.784;2023-10-13T14:19:14;20.20;99.90
59301;DHT22;45073;52.740;6.784;2023-10-13T14:21:44;20.20;99.90
59301;DHT22;45073;52.740;6.784;2023-10-13T14:24:19;20.10;99.90
59301;DHT22;45073;52.740;6.784;2023-10-13T14:26:53;20.10;99.90
59301;DHT22;45073;52.740;6.784;2023-10-13T14:29:19;20.10;99.90
59301;DHT22;45073;52.740;6.784;2023-10-13T14:31:45;20.10;99.90
59301;DHT22;45073;52.740;6.784;2023-10-13T14:34:14;20.20;99.90
59301;DHT22;45073;52.740;6.784;2023-10-13T14:36:40;20.10;99.90
59301;DHT22;45073;52.740;6.784;2023-10-13T14:39:07;20.10;99.90
59301;DHT22;45073;52.740;6.784;2023-10-13T14:41:38;20.10;99.90
59301;DHT22;45073;52.740;6.784;2023-10-13T14:44:04;20.20;99.90
59301;DHT22;45073;52.740;6.784;2023-10-13T14:46:33;20.10;99.90
59301;DHT22;45073;52.740;6.784;2023-10-13T14:49:05;20.10;99.90
59301;DHT22;45073;52.740;6.784;2023-10-13T14:51:31;20.00;99.90
59301;DHT22;45073;52.740;6.784;2023-10-13T14:53:57;20.00;99.90
59301;DHT22;45073;52.740;6.784;2023-10-13T14:56:26;19.90;99.90
59301;DHT22;45073;52.740;6.784;2023-10-13T14:58:53;19.80;99.90
59301;DHT22;45073;52.740;6.784;2023-10-13T15:01:23;19.70;99.90
59301;DHT22;45073;52.740;6.784;2023-10-13T15:03:52;19.60;99.90
59301;DHT22;45073;52.740;6.784;2023-10-13T15:06:23;19.50;99.90
59301;DHT22;45073;52.740;6.784;2023-10-13T15:08:55;19.40;99.90
59301;DHT22;45073;52.740;6.784;2023-10-13T15:11:25;19.40;99.90
59301;DHT22;45073;52.740;6.784;2023-10-13T15:14:05;19.30;99.90
59301;DHT22;45073;52.740;6.784;2023-10-13T15:16:33;19.20;99.90
59301;DHT22;45073;52.740;6.784;2023-10-13T15:18:59;19.20;99.90
59301;DHT22;45073;52.740;6.784;2023-10-13T15:21:29;19.20;99.90
59301;DHT22;45073;52.740;6.784;2023-10-13T15:24:02;19.20;99.90
59301;DHT22;45073;52.740;6.784;2023-10-13T15:26:45;19.10;99.90
59301;DHT22;45073;52.740;6.784;2023-10-13T15:29:15;19.10;99.90
59301;DHT22;45073;52.740;6.784;2023-10-13T15:31:43;19.00;99.90
59301;DHT22;45073;52.740;6.784;2023-10-13T15:34:19;18.90;99.90
59301;DHT22;45073;52.740;6.784;2023-10-13T15:36:45;18.90;99.90
59301;DHT22;45073;52.740;6.784;2023-10-13T15:39:11;18.90;99.90
59301;DHT22;45073;52.740;6.784;2023-10-13T15:41:41;18.80;99.90
59301;DHT22;45073;52.740;6.784;2023-10-13T15:44:11;18.80;99.90
59301;DHT22;45073;52.740;6.784;2023-10-13T15:46:38;18.80;99.90
59301;DHT22;45073;52.740;6.784;2023-10-13T15:49:05;18.70;99.90
59301;DHT22;45073;52.740;6.784;2023-10-13T15:51:34;18.80;99.90
59301;DHT22;45073;52.740;6.784;2023-10-13T15:54:03;18.80;99.90
59301;DHT22;45073;52.740;6.784;2023-10-13T15:56:29;18.70;99.90
59301;DHT22;45073;52.740;6.784;2023-10-13T15:59:01;18.70;99.90
59301;DHT22;45073;52.740;6.784;2023-10-13T16:01:27;18.70;99.90
59301;DHT22;45073;52.740;6.784;2023-10-13T16:03:54;18.70;99.90
59301;DHT22;45073;52.740;6.784;2023-10-13T16:06:19;18.70;99.90
59301;DHT22;45073;52.740;6.784;2023-10-13T16:08:52;18.70;99.90
59301;DHT22;45073;52.740;6.784;2023-10-13T16:11:18;18.70;99.90
59301;DHT22;45073;52.740;6.784;2023-10-13T16:13:44;18.70;99.90
59301;DHT22;45073;52.740;6.784;2023-10-13T16:16:25;18.60;99.90
59301;DHT22;45073;52.740;6.784;2023-10-13T16:18:53;18.60;99.90
59301;DHT22;45073;52.740;6.784;2023-10-13T16:21:19;18.60;99.90
59301;DHT22;45073;52.740;6.784;2023-10-13T16:23:46;18.60;99.90
59301;DHT22;45073;52.740;6.784;2023-10-13T16:26:18;18.60;99.90
59301;DHT22;45073;52.740;6.784;2023-10-13T16:28:51;18.50;99.90
59301;DHT22;45073;52.740;6.784;2023-10-13T16:31:23;18.50;99.90
59301;DHT22;45073;52.740;6.784;2023-10-13T16:33:51;18.50;99.90
59301;DHT22;45073;52.740;6.784;2023-10-13T16:36:20;18.50;99.90
59301;DHT22;45073;52.740;6.784;2023-10-13T16:38:47;18.50;99.90
59301;DHT22;45073;52.740;6.784;2023-10-13T16:41:13;18.50;99.90